Terminal Aerodrome Forecast
Issued by NWS

Home | Current Version | Previous Version | Text Only | Print | Product List | Glossary On
Versions: 1 2 3 4 5 6 7 8 9 10 11 12 13 14
031
FTUS43 KMQT 290523
TAFIWD
TAF
KIWD 290523Z 2906/3006 20005KT 5SM BR VCSH OVC010
     FM290900 25006KT 3SM BR VCSH OVC003
     FM291400 29008KT 4SM BR OVC003
     FM291600 29008KT P6SM OVC003
     FM291900 31008KT P6SM BKN007
     FM300100 VRB03KT P6SM BKN008=

USA.gov is the U.S. government's official web portal to all federal, state and local government web resources and services.